Time;durP1;ratioP1;P1;durP2;ratioP2;P2;SDS_P1;SDS_P2;PMS_P1;PMS_P2;Temp;Humidity;BMP_temperature;BMP_pressure;BME280_temperature;BME280_humidity;BME280_pressure;Samples;Min_cycle;Max_cycle;Signal;HPM_P1;HPM_P2
2021/08/24 00:01:48;;;;;;;8.60;4.80;;;;;;;15.04;83.66;102946.53;5054258;28;20025;-64
2021/08/24 00:04:13;;;;;;;8.35;4.70;;;;;;;15.02;83.65;102943.88;5055017;28;20032;-68
2021/08/24 00:06:38;;;;;;;8.50;4.70;;;;;;;15.03;83.49;102942.13;5054225;28;20032;-65
2021/08/24 00:09:04;;;;;;;8.05;4.35;;;;;;;15.05;83.45;102948.25;5054701;28;20040;-66
2021/08/24 00:11:33;;;;;;;6.68;4.40;;;;;;;15.06;83.61;102942.00;5054583;28;20424;-65
2021/08/24 00:14:00;;;;;;;8.90;4.45;;;;;;;15.04;83.11;102950.06;5054155;28;20026;-70
2021/08/24 00:16:25;;;;;;;7.53;4.03;;;;;;;15.04;83.03;102946.53;5054728;28;20033;-69
2021/08/24 00:18:51;;;;;;;8.95;5.05;;;;;;;15.05;83.57;102943.81;5053987;28;20485;-70
2021/08/24 00:21:16;;;;;;;6.70;4.43;;;;;;;15.04;82.66;102935.84;5054023;28;20029;-65
2021/08/24 00:23:41;;;;;;;7.57;4.20;;;;;;;15.01;82.72;102935.94;5055019;28;20401;-64
2021/08/24 00:26:06;;;;;;;9.88;4.40;;;;;;;14.99;82.57;102935.13;5055096;28;20385;-63
2021/08/24 00:28:32;;;;;;;9.40;4.40;;;;;;;15.00;83.06;102932.41;5053818;28;20370;-65
2021/08/24 00:30:57;;;;;;;10.55;4.55;;;;;;;15.00;83.15;102939.50;5053573;28;20033;-65
2021/08/24 00:33:25;;;;;;;8.27;4.28;;;;;;;15.00;82.65;102928.84;5053625;28;20068;-64
2021/08/24 00:35:50;;;;;;;8.73;4.25;;;;;;;15.01;82.46;102935.94;5055901;28;20096;-65
2021/08/24 00:38:19;;;;;;;9.00;4.40;;;;;;;15.02;82.72;102935.03;5053785;28;20056;-65
2021/08/24 00:40:52;;;;;;;5.68;3.80;;;;;;;15.00;82.17;102937.75;5053566;28;20021;-67
2021/08/24 00:43:18;;;;;;;7.07;3.78;;;;;;;14.97;81.65;102935.16;5053618;28;20029;-64
2021/08/24 00:45:47;;;;;;;6.22;3.78;;;;;;;14.95;82.16;102942.34;5054283;28;20033;-64
2021/08/24 00:48:12;;;;;;;8.90;3.75;;;;;;;14.93;82.28;102938.84;5067354;28;20060;-66
2021/08/24 00:50:43;;;;;;;7.25;3.78;;;;;;;14.90;82.11;102944.28;5053886;28;20035;-66
2021/08/24 00:53:13;;;;;;;7.45;3.85;;;;;;;14.92;81.60;102942.41;5035647;28;20104;-66
2021/08/24 00:55:41;;;;;;;5.95;3.50;;;;;;;14.89;81.09;102939.84;5054416;28;20388;-65
2021/08/24 00:58:10;;;;;;;5.05;3.30;;;;;;;14.87;81.10;102947.91;5054362;28;20055;-65
2021/08/24 01:00:36;;;;;;;8.20;3.95;;;;;;;14.83;81.07;102948.88;5053163;28;20033;-65
2021/08/24 01:03:11;;;;;;;7.20;3.08;;;;;;;14.82;81.20;102946.28;5052913;28;20382;-66
2021/08/24 01:05:38;;;;;;;5.72;3.40;;;;;;;14.80;81.63;102956.13;5054302;28;20021;-64
2021/08/24 01:08:16;;;;;;;7.00;3.80;;;;;;;14.76;81.20;102955.34;5037453;28;20440;-65
2021/08/24 01:10:46;;;;;;;7.25;3.80;;;;;;;14.75;81.24;102954.44;5073075;28;20060;-64
2021/08/24 01:13:30;;;;;;;7.10;3.40;;;;;;;14.73;81.21;102955.41;5072829;28;20427;-64
2021/08/24 01:16:06;;;;;;;7.57;3.38;;;;;;;14.67;81.59;102952.94;5070951;28;20028;-64
2021/08/24 01:18:44;;;;;;;7.05;3.95;;;;;;;14.61;81.63;102958.41;5070924;28;20052;-65
2021/08/24 01:22:03;;;;;;;8.35;3.67;;;;;;;14.52;82.22;102955.06;5073060;28;20035;-66
2021/08/24 01:24:40;;;;;;;10.15;3.50;;;;;;;14.47;82.54;102953.47;5010927;28;20034;-64
2021/08/24 01:27:11;;;;;;;7.43;3.92;;;;;;;14.42;82.70;102958.91;5009225;28;20042;-64
2021/08/24 01:30:06;;;;;;;8.27;3.95;;;;;;;14.38;83.00;102962.56;5009187;28;20056;-64
2021/08/24 01:32:53;;;;;;;7.57;4.15;;;;;;;14.35;83.25;102955.53;5010553;28;20037;-66
2021/08/24 01:35:55;;;;;;;7.25;4.03;;;;;;;14.33;83.50;102957.34;5010944;28;20036;-66
2021/08/24 01:38:33;;;;;;;8.70;4.15;;;;;;;14.27;82.90;102954.84;5008953;28;20042;-65
2021/08/24 01:41:10;;;;;;;7.53;4.22;;;;;;;14.22;83.32;102962.97;4998202;28;20042;-65
2021/08/24 01:43:59;;;;;;;7.70;4.13;;;;;;;14.19;83.48;102964.84;4991011;28;20470;-65
2021/08/24 01:46:30;;;;;;;7.22;3.90;;;;;;;14.15;83.75;102958.72;4991134;28;20045;-65
2021/08/24 01:49:00;;;;;;;10.50;4.47;;;;;;;14.16;83.63;102957.81;4991783;28;20042;-66
2021/08/24 01:51:30;;;;;;;8.88;4.40;;;;;;;14.14;83.98;102958.75;4993274;28;20093;-65
2021/08/24 01:54:01;;;;;;;10.52;4.55;;;;;;;14.08;83.98;102960.66;4990932;28;20078;-64
2021/08/24 01:56:32;;;;;;;8.75;4.18;;;;;;;14.04;84.27;102964.34;4991029;28;20026;-65
2021/08/24 01:59:05;;;;;;;10.45;4.32;;;;;;;13.99;84.40;102968.91;5035125;28;20040;-65
2021/08/24 02:01:34;;;;;;;8.93;4.60;;;;;;;13.95;84.85;102966.34;5065455;28;20028;-65
2021/08/24 02:04:00;;;;;;;7.28;4.47;;;;;;;13.90;84.92;102967.34;5072170;28;20059;-65
2021/08/24 02:06:32;;;;;;;7.32;4.75;;;;;;;13.88;84.84;102974.47;5072308;28;20036;-66
2021/08/24 02:09:02;;;;;;;9.40;5.25;;;;;;;13.86;85.49;102976.34;5070548;28;20075;-65
2021/08/24 02:11:31;;;;;;;13.10;5.78;;;;;;;13.82;85.63;102968.44;5052432;28;20012;-65
2021/08/24 02:14:00;;;;;;;11.05;6.15;;;;;;;13.78;85.83;102970.31;5072066;28;20025;-67
2021/08/24 02:16:28;;;;;;;11.05;6.57;;;;;;;13.77;86.41;102973.88;5072169;28;20021;-68
2021/08/24 02:18:59;;;;;;;9.93;6.32;;;;;;;13.73;86.74;102982.84;5070183;28;20071;-65
2021/08/24 02:21:31;;;;;;;11.07;6.63;;;;;;;13.72;86.70;102979.31;5072141;28;20032;-65
2021/08/24 02:24:02;;;;;;;16.50;7.47;;;;;;;13.68;87.23;102974.09;5070057;28;20061;-66
2021/08/24 02:26:30;;;;;;;11.85;6.88;;;;;;;13.63;87.19;102982.19;5092115;28;20495;-65
2021/08/24 02:28:57;;;;;;;13.63;7.13;;;;;;;13.61;87.37;102981.38;5090530;28;20024;-64
2021/08/24 02:31:43;;;;;;;14.40;7.90;;;;;;;13.56;88.01;102988.56;5081646;28;20051;-65
2021/08/24 02:34:36;;;;;;;15.90;7.32;;;;;;;13.53;88.32;102994.84;5072707;28;20037;-64
2021/08/24 02:37:20;;;;;;;13.38;7.60;;;;;;;13.54;88.09;102987.72;5072449;28;20036;-65
2021/08/24 02:40:20;;;;;;;15.20;8.27;;;;;;;13.51;88.34;102991.34;5076935;28;20104;-64
2021/08/24 02:42:53;;;;;;;16.63;8.80;;;;;;;13.48;88.30;102993.19;5075762;28;20033;-64
2021/08/24 02:45:31;;;;;;;16.58;8.07;;;;;;;13.43;88.75;102994.16;5076885;28;20037;-64
2021/08/24 02:47:59;;;;;;;14.35;8.00;;;;;;;13.41;89.00;102993.34;5089232;28;20099;-64
2021/08/24 02:50:25;;;;;;;14.48;8.45;;;;;;;13.38;88.60;102992.53;5094125;28;20039;-64
2021/08/24 02:52:51;;;;;;;13.48;7.82;;;;;;;13.38;88.99;102993.41;5096063;28;20025;-65
2021/08/24 02:55:17;;;;;;;14.40;8.77;;;;;;;13.37;89.05;102990.78;5094378;28;20028;-65
2021/08/24 02:57:42;;;;;;;14.65;9.70;;;;;;;13.35;89.72;102998.78;5095908;28;20020;-64
2021/08/24 03:00:08;;;;;;;19.20;9.20;;;;;;;13.32;89.47;102997.97;5095403;28;20020;-64
2021/08/24 03:02:33;;;;;;;15.70;9.98;;;;;;;13.32;89.63;102990.84;5089809;28;20161;-64
2021/08/24 03:04:59;;;;;;;16.90;9.65;;;;;;;13.29;89.88;102998.91;5076380;28;20028;-64
2021/08/24 03:07:31;;;;;;;14.82;8.82;;;;;;;13.27;89.65;102987.41;5075575;28;20029;-64
2021/08/24 03:09:59;;;;;;;18.38;9.68;;;;;;;13.25;90.17;102992.75;5075607;28;20048;-65
2021/08/24 03:12:38;;;;;;;19.20;10.35;;;;;;;13.25;90.30;102987.44;5075003;28;20075;-65
2021/08/24 03:15:13;;;;;;;16.95;9.43;;;;;;;13.22;89.90;102992.84;5075426;28;20055;-64
2021/08/24 03:17:53;;;;;;;15.27;10.32;;;;;;;13.19;90.36;102989.38;5094084;28;20481;-65
2021/08/24 03:20:22;;;;;;;14.02;8.95;;;;;;;13.18;90.36;102995.59;5095187;28;20079;-62
2021/08/24 03:22:49;;;;;;;15.07;8.80;;;;;;;13.17;89.71;102989.41;5093572;28;20105;-64
2021/08/24 03:25:15;;;;;;;15.75;9.18;;;;;;;13.14;89.96;103002.75;5095599;28;20042;-64
2021/08/24 03:27:43;;;;;;;18.60;10.68;;;;;;;13.13;90.41;103000.13;5093929;28;20085;-65
2021/08/24 03:30:12;;;;;;;16.60;9.82;;;;;;;13.14;90.48;102993.91;5095338;28;20475;-64
2021/08/24 03:32:38;;;;;;;19.90;11.30;;;;;;;13.14;90.82;102991.25;5093855;28;20032;-64
2021/08/24 03:35:05;;;;;;;22.20;10.50;;;;;;;13.11;90.55;102987.72;5094880;28;20085;-63
2021/08/24 03:37:31;;;;;;;21.80;11.07;;;;;;;13.10;90.57;102991.28;5093170;28;20089;-65
2021/08/24 03:39:56;;;;;;;17.33;9.80;;;;;;;13.10;90.59;102990.44;5095108;28;20020;-66
2021/08/24 03:42:21;;;;;;;22.30;11.65;;;;;;;13.09;90.76;102992.22;5093189;28;20071;-65
2021/08/24 03:44:47;;;;;;;18.70;10.80;;;;;;;13.10;91.05;102991.28;5095016;28;20052;-64
2021/08/24 03:47:14;;;;;;;19.38;11.73;;;;;;;13.10;91.32;102983.31;5093902;28;20024;-64
2021/08/24 03:49:40;;;;;;;23.30;11.63;;;;;;;13.12;91.26;102993.94;5094497;28;20051;-65
2021/08/24 03:52:05;;;;;;;20.60;11.90;;;;;;;13.11;91.35;102995.72;5094697;28;20388;-64
2021/08/24 03:54:31;;;;;;;23.23;13.98;;;;;;;13.14;92.26;102986.78;5092945;28;20028;-65
2021/08/24 03:56:56;;;;;;;23.23;12.40;;;;;;;13.13;91.99;102993.00;5094581;28;20028;-64
2021/08/24 03:59:21;;;;;;;19.35;11.50;;;;;;;13.13;91.81;102986.81;5092944;28;20043;-65
2021/08/24 04:01:47;;;;;;;21.33;12.65;;;;;;;13.13;91.86;102986.81;5090543;28;20020;-66
2021/08/24 04:04:12;;;;;;;22.88;11.75;;;;;;;13.13;92.27;102993.00;5075382;28;20062;-66
2021/08/24 04:06:38;;;;;;;19.60;12.02;;;;;;;13.15;92.26;102998.31;5055950;28;20032;-66
2021/08/24 04:09:03;;;;;;;24.10;12.73;;;;;;;13.14;91.99;102994.78;5074251;28;20069;-65
2021/08/24 04:11:28;;;;;;;20.95;13.40;;;;;;;13.15;92.16;102995.66;5074263;28;20028;-65
2021/08/24 04:13:54;;;;;;;21.55;12.43;;;;;;;13.13;92.57;103000.13;5076114;28;20021;-69
2021/08/24 04:16:19;;;;;;;28.83;14.55;;;;;;;13.14;92.63;103012.53;5074249;28;20033;-66
2021/08/24 04:18:44;;;;;;;17.52;11.30;;;;;;;13.11;92.56;103009.00;5074056;28;20036;-66
2021/08/24 04:21:13;;;;;;;20.50;12.60;;;;;;;13.13;92.08;103008.09;5074179;28;20025;-65
2021/08/24 04:23:40;;;;;;;25.02;13.73;;;;;;;13.13;92.42;103008.09;5075688;28;20035;-64
2021/08/24 04:26:06;;;;;;;26.27;14.05;;;;;;;13.13;92.52;103003.66;5074010;28;20021;-66
2021/08/24 04:28:31;;;;;;;22.25;13.32;;;;;;;13.13;92.31;103014.28;5073699;28;20169;-67
2021/08/24 04:30:58;;;;;;;23.27;13.15;;;;;;;13.12;92.44;103012.56;5073802;28;20024;-66
2021/08/24 04:33:24;;;;;;;29.17;15.57;;;;;;;13.15;92.80;103015.16;5074856;28;20481;-64
2021/08/24 04:35:53;;;;;;;25.48;14.63;;;;;;;13.17;93.11;103005.38;5074714;28;20024;-66
2021/08/24 04:38:19;;;;;;;26.75;15.23;;;;;;;13.19;93.00;103011.50;5073530;28;20038;-65
2021/08/24 04:40:45;;;;;;;25.95;14.82;;;;;;;13.21;93.18;103009.72;5073517;28;20132;-66
2021/08/24 04:43:11;;;;;;;26.88;15.32;;;;;;;13.24;93.36;103020.28;5073581;28;20025;-67
2021/08/24 04:45:37;;;;;;;25.55;15.05;;;;;;;13.27;93.32;103022.88;5075608;28;20085;-64
2021/08/24 04:48:02;;;;;;;27.60;14.98;;;;;;;13.28;93.25;103019.28;5073353;28;20036;-65
2021/08/24 04:50:28;;;;;;;28.23;15.43;;;;;;;13.29;93.12;103025.50;5067264;28;20097;-63
2021/08/24 04:52:53;;;;;;;31.83;14.85;;;;;;;13.30;93.26;103035.25;5069513;28;20028;-63
2021/08/24 04:55:18;;;;;;;31.25;15.65;;;;;;;13.34;93.58;103022.72;5074095;28;20024;-65
2021/08/24 04:57:44;;;;;;;26.55;15.07;;;;;;;13.37;93.49;103030.69;5045394;28;20052;-63
2021/08/24 05:00:10;;;;;;;25.17;14.48;;;;;;;13.41;93.81;103038.59;5061829;28;20111;-64
2021/08/24 05:02:35;;;;;;;27.40;15.40;;;;;;;13.42;93.48;103034.13;5073288;28;20417;-64
2021/08/24 05:05:00;;;;;;;25.02;13.27;;;;;;;13.47;93.40;103029.59;5088179;28;20126;-65
2021/08/24 05:07:28;;;;;;;26.45;14.80;;;;;;;13.51;93.50;103028.59;5074687;28;20230;-65
2021/08/24 05:09:53;;;;;;;23.23;13.60;;;;;;;13.56;93.33;103029.38;5072918;28;20488;-65
2021/08/24 05:12:18;;;;;;;24.52;12.75;;;;;;;13.58;93.43;103029.31;5073173;28;20028;-64
2021/08/24 05:14:43;;;;;;;22.75;13.10;;;;;;;13.60;93.11;103040.84;5072237;28;20063;-63
2021/08/24 05:17:09;;;;;;;19.77;11.75;;;;;;;13.65;93.08;103030.09;5074916;28;20361;-62
2021/08/24 05:19:34;;;;;;;23.27;12.27;;;;;;;13.68;93.32;103035.34;5053415;28;20041;-65
2021/08/24 05:21:59;;;;;;;20.75;11.32;;;;;;;13.71;93.24;103028.16;5052079;28;20473;-62
2021/08/24 05:24:25;;;;;;;23.60;12.15;;;;;;;13.75;93.24;103031.63;5052646;28;20025;-62
2021/08/24 05:26:50;;;;;;;21.25;10.88;;;;;;;13.80;92.92;103024.41;5050744;28;20160;-67
2021/08/24 05:29:16;;;;;;;21.50;11.40;;;;;;;13.85;92.92;103029.59;5046684;28;20030;-65
2021/08/24 05:31:43;;;;;;;21.60;11.27;;;;;;;13.91;92.96;103025.03;5042458;28;20043;-63
2021/08/24 05:34:09;;;;;;;23.10;10.98;;;;;;;13.97;92.88;103026.66;5043788;28;20021;-62
2021/08/24 05:36:34;;;;;;;20.45;10.73;;;;;;;14.02;92.49;103027.41;5044994;28;20052;-63
2021/08/24 05:39:02;;;;;;;19.58;9.75;;;;;;;14.07;92.44;103028.19;5043012;28;20488;-64
2021/08/24 05:41:27;;;;;;;17.95;9.32;;;;;;;14.12;92.24;103029.84;5032423;28;20464;-64
2021/08/24 05:43:53;;;;;;;19.80;9.48;;;;;;;14.19;92.31;103027.00;5044970;28;20108;-64
2021/08/24 05:46:18;;;;;;;15.52;9.60;;;;;;;14.24;92.26;103030.41;5035406;28;20146;-64
2021/08/24 05:48:43;;;;;;;18.02;10.05;;;;;;;14.32;91.59;103037.34;5034675;28;20025;-63
2021/08/24 05:51:15;;;;;;;18.27;9.73;;;;;;;14.36;91.63;103033.69;5039324;28;20397;-63
2021/08/24 05:53:41;;;;;;;14.63;9.52;;;;;;;14.41;91.51;103030.00;5040071;28;20112;-65
2021/08/24 05:56:15;;;;;;;16.83;9.45;;;;;;;14.49;91.66;103028.91;5032437;28;20160;-65
2021/08/24 05:58:41;;;;;;;16.58;9.20;;;;;;;14.57;91.24;103034.94;5045087;28;20044;-65
2021/08/24 06:01:08;;;;;;;17.40;9.02;;;;;;;14.62;91.14;103043.69;5026794;28;20030;-63
2021/08/24 06:03:37;;;;;;;16.30;8.98;;;;;;;14.66;90.87;103042.72;5021452;28;20037;-64
2021/08/24 06:06:02;;;;;;;17.15;10.25;;;;;;;14.71;90.90;103050.59;5025477;28;20037;-66
2021/08/24 06:08:27;;;;;;;18.92;10.23;;;;;;;14.76;91.02;103046.03;5028267;28;20022;-64
2021/08/24 06:10:53;;;;;;;16.15;10.02;;;;;;;14.83;91.23;103052.06;5016719;28;20034;-64
2021/08/24 06:13:18;;;;;;;16.02;9.02;;;;;;;14.94;90.52;103051.78;5043935;28;20040;-64
2021/08/24 06:15:43;;;;;;;17.13;9.68;;;;;;;15.02;90.69;103049.75;5047540;28;20065;-62
2021/08/24 06:18:09;;;;;;;20.00;10.15;;;;;;;15.09;90.49;103062.00;5036140;28;20028;-63
2021/08/24 06:20:34;;;;;;;14.10;9.30;;;;;;;15.16;90.16;103057.38;5059311;28;20101;-64
2021/08/24 06:23:00;;;;;;;17.98;9.13;;;;;;;15.26;90.11;103057.97;5057691;28;20115;-64
2021/08/24 06:25:25;;;;;;;15.50;8.45;;;;;;;15.30;89.79;103057.81;5056279;28;20131;-64
2021/08/24 06:27:51;;;;;;;11.95;7.68;;;;;;;15.36;89.47;103046.13;5055935;28;20387;-63
2021/08/24 06:30:17;;;;;;;16.73;7.88;;;;;;;15.44;88.69;103053.88;5038177;28;20035;-64
2021/08/24 06:32:46;;;;;;;14.43;7.43;;;;;;;15.54;88.62;103058.03;5047474;28;20040;-70
2021/08/24 06:35:12;;;;;;;11.95;7.53;;;;;;;15.62;88.35;103055.97;4997135;28;20041;-64
2021/08/24 06:37:38;;;;;;;14.73;7.63;;;;;;;15.66;87.92;103056.78;5046427;28;20173;-64
2021/08/24 06:40:06;;;;;;;13.38;7.63;;;;;;;15.68;88.25;103063.81;5047727;28;20178;-66
2021/08/24 06:42:44;;;;;;;12.80;7.53;;;;;;;15.81;87.43;103052.75;5075975;28;20464;-65
2021/08/24 06:45:12;;;;;;;10.10;6.90;;;;;;;15.84;87.50;103060.69;5060384;28;20156;-64
2021/08/24 06:47:38;;;;;;;11.90;6.72;;;;;;;15.95;86.72;103071.06;5047420;28;20040;-66
2021/08/24 06:50:03;;;;;;;12.18;6.90;;;;;;;15.99;86.50;103073.56;5040962;28;20037;-66
2021/08/24 06:52:29;;;;;;;15.32;6.60;;;;;;;16.04;85.97;103068.94;5055392;28;20036;-66
2021/08/24 06:54:54;;;;;;;13.93;6.30;;;;;;;16.08;86.43;103061.72;5055638;28;20107;-64
2021/08/24 06:57:19;;;;;;;16.98;6.28;;;;;;;16.12;86.44;103063.34;5056162;28;20029;-66
2021/08/24 06:59:44;;;;;;;11.63;6.07;;;;;;;16.24;85.99;103063.88;5056252;28;20024;-65
2021/08/24 07:02:10;;;;;;;13.00;6.47;;;;;;;16.31;85.89;103068.09;5055188;28;20062;-64
2021/08/24 07:04:35;;;;;;;11.85;6.30;;;;;;;16.42;84.98;103070.41;5048745;28;20060;-65
2021/08/24 07:07:01;;;;;;;10.95;5.57;;;;;;;16.47;85.13;103068.44;5039945;28;20056;-66
2021/08/24 07:09:26;;;;;;;13.15;6.45;;;;;;;16.48;84.45;103070.19;5054128;28;20039;-65
2021/08/24 07:11:51;;;;;;;12.30;6.13;;;;;;;16.47;84.62;103076.47;5056647;28;20025;-64
2021/08/24 07:14:17;;;;;;;12.48;6.50;;;;;;;16.54;84.08;103075.34;5056761;28;20032;-65
2021/08/24 07:16:43;;;;;;;12.10;6.03;;;;;;;16.61;83.76;103087.56;5066086;28;20133;-64
2021/08/24 07:19:09;;;;;;;11.52;6.20;;;;;;;16.71;83.51;103080.97;5052584;28;20077;-63
2021/08/24 07:21:35;;;;;;;11.60;5.35;;;;;;;16.86;83.02;103067.97;5027931;28;20080;-65
2021/08/24 07:24:00;;;;;;;12.80;4.90;;;;;;;17.04;81.67;103078.03;5009361;28;20044;-65
2021/08/24 07:26:26;;;;;;;12.35;4.90;;;;;;;17.19;81.25;103073.94;5036989;28;20032;-64
2021/08/24 07:28:52;;;;;;;8.30;4.80;;;;;;;17.36;80.49;103067.06;5040887;28;20108;-65
2021/08/24 07:31:17;;;;;;;10.05;5.13;;;;;;;17.31;80.72;103071.72;5047577;28;20465;-64
2021/08/24 07:33:43;;;;;;;9.18;4.28;;;;;;;17.34;81.16;103074.28;5055067;28;20028;-65
2021/08/24 07:36:08;;;;;;;9.98;4.50;;;;;;;17.45;79.56;103082.78;5044820;28;20108;-63
2021/08/24 07:38:34;;;;;;;10.18;4.13;;;;;;;17.46;79.43;103089.88;5047614;28;20083;-66
2021/08/24 07:40:59;;;;;;;15.52;4.60;;;;;;;17.48;77.59;103084.47;5035706;28;20026;-64
2021/08/24 07:43:24;;;;;;;11.55;4.15;;;;;;;17.52;78.34;103086.13;5043300;28;20068;-64
2021/08/24 07:45:50;;;;;;;13.07;3.83;;;;;;;17.68;77.13;103092.59;5038047;28;20029;-66
2021/08/24 07:48:16;;;;;;;6.70;3.55;;;;;;;17.81;75.86;103081.41;5043613;28;20080;-64
2021/08/24 07:50:42;;;;;;;7.90;3.92;;;;;;;18.00;76.16;103078.88;5034266;28;20030;-66
2021/08/24 07:53:07;;;;;;;7.82;4.22;;;;;;;18.14;75.77;103081.00;5037018;28;20017;-62
2021/08/24 07:55:35;;;;;;;8.32;3.60;;;;;;;18.23;74.31;103077.94;5024202;28;20454;-65
2021/08/24 07:58:00;;;;;;;10.02;4.00;;;;;;;18.32;74.69;103090.97;5029798;28;21022;-64
2021/08/24 08:00:26;;;;;;;7.55;3.20;;;;;;;18.46;73.32;103082.34;5023445;28;20493;-64
2021/08/24 08:02:51;;;;;;;9.32;3.50;;;;;;;18.53;73.33;103085.66;5030872;28;20116;-63
2021/08/24 08:05:17;;;;;;;7.82;3.50;;;;;;;18.54;71.58;103083.81;5045143;28;20033;-65
2021/08/24 08:07:43;;;;;;;8.02;3.33;;;;;;;18.46;71.38;103090.38;5037216;28;20052;-64
2021/08/24 08:10:09;;;;;;;7.35;3.13;;;;;;;18.35;71.54;103084.63;5040660;28;20025;-62
2021/08/24 08:12:34;;;;;;;8.63;3.67;;;;;;;18.39;72.39;103093.38;5035460;28;20064;-63
2021/08/24 08:14:59;;;;;;;11.27;3.50;;;;;;;18.48;71.77;103093.88;5033288;28;20083;-62
2021/08/24 08:17:25;;;;;;;8.63;3.60;;;;;;;18.76;71.91;103091.81;5034435;28;20033;-64
2021/08/24 08:19:50;;;;;;;4.60;2.80;;;;;;;18.96;70.46;103093.66;5048418;28;20052;-65
2021/08/24 08:22:16;;;;;;;7.97;2.92;;;;;;;19.08;69.48;103093.09;5057392;28;20068;-63
2021/08/24 08:24:41;;;;;;;6.80;2.90;;;;;;;19.09;67.30;103093.97;5052835;28;20017;-64
2021/08/24 08:27:07;;;;;;;6.53;2.97;;;;;;;19.01;67.65;103088.09;5057852;28;20441;-62
2021/08/24 08:29:32;;;;;;;5.30;2.88;;;;;;;19.01;66.47;103097.00;5060781;28;20103;-65
2021/08/24 08:32:08;;;;;;;6.25;2.97;;;;;;;18.88;68.17;103095.78;5054313;28;20036;-64
2021/08/24 08:34:33;;;;;;;8.32;3.58;;;;;;;18.82;68.77;103083.50;5069352;28;20536;-66
2021/08/24 08:36:58;;;;;;;6.82;3.53;;;;;;;18.92;68.71;103087.53;5042238;28;20108;-64
2021/08/24 08:39:24;;;;;;;9.48;3.75;;;;;;;19.04;68.75;103087.94;5037552;28;20115;-64
2021/08/24 08:41:58;;;;;;;8.13;3.40;;;;;;;19.26;67.31;103085.13;5067991;28;20139;-63
2021/08/24 08:44:48;;;;;;;5.57;2.97;;;;;;;19.53;66.72;103092.84;5062308;28;20028;-66
2021/08/24 08:47:28;;;;;;;4.82;2.83;;;;;;;19.60;64.50;103080.88;5046611;28;20029;-65
2021/08/24 08:50:01;;;;;;;9.93;3.22;;;;;;;19.69;64.66;103090.31;5034465;28;20033;-63
2021/08/24 08:52:45;;;;;;;7.30;3.00;;;;;;;19.69;63.84;103084.94;5064238;28;20531;-64
2021/08/24 08:55:25;;;;;;;7.22;2.90;;;;;;;19.44;62.96;103086.97;5073331;28;20024;-64
2021/08/24 08:58:06;;;;;;;8.00;2.80;;;;;;;19.57;63.01;103086.41;5071531;28;20391;-64
2021/08/24 09:00:47;;;;;;;7.38;2.70;;;;;;;19.59;61.93;103090.78;5072598;28;20040;-64
2021/08/24 09:03:22;;;;;;;5.50;2.42;;;;;;;19.62;62.19;103089.75;5059509;28;20021;-64
2021/08/24 09:05:48;;;;;;;3.95;2.33;;;;;;;19.80;62.62;103086.16;5052389;28;20025;-64
2021/08/24 09:08:18;;;;;;;5.78;2.60;;;;;;;20.09;62.82;103091.97;5059827;28;20036;-64
2021/08/24 09:10:53;;;;;;;6.18;2.80;;;;;;;20.17;62.84;103096.97;5060259;28;20028;-64
2021/08/24 09:13:24;;;;;;;6.30;2.85;;;;;;;20.43;61.86;103094.78;5061291;28;20479;-63
2021/08/24 09:16:01;;;;;;;7.57;2.83;;;;;;;20.66;60.59;103095.44;5041376;28;20377;-63
2021/08/24 09:18:51;;;;;;;6.28;2.72;;;;;;;20.93;58.62;103096.72;5063099;28;20037;-64
2021/08/24 09:21:30;;;;;;;4.32;2.53;;;;;;;21.97;56.11;103091.06;5052246;28;20072;-62
2021/08/24 09:24:00;;;;;;;5.80;2.75;;;;;;;22.82;52.65;103095.97;5051077;28;20489;-63
2021/08/24 09:27:03;;;;;;;5.10;2.58;;;;;;;23.75;51.51;103096.44;5037699;28;20162;-63
2021/08/24 09:29:34;;;;;;;7.53;2.67;;;;;;;25.41;46.94;103094.19;5053167;28;20040;-63
2021/08/24 09:32:04;;;;;;;5.43;2.75;;;;;;;24.87;48.73;103103.41;5069433;28;20103;-63
2021/08/24 09:34:34;;;;;;;8.90;4.28;;;;;;;23.33;51.06;103092.84;5055522;28;20060;-62
2021/08/24 09:36:59;;;;;;;7.80;3.05;;;;;;;23.03;52.87;103088.34;5052365;28;20025;-63
2021/08/24 09:39:48;;;;;;;5.88;3.20;;;;;;;22.29;55.15;103098.19;5054400;28;20040;-62
2021/08/24 09:42:13;;;;;;;6.38;3.17;;;;;;;22.66;54.82;103094.22;5051815;28;20408;-65
2021/08/24 09:44:38;;;;;;;6.72;2.78;;;;;;;22.14;55.51;103084.66;5064245;28;20025;-60
2021/08/24 09:47:23;;;;;;;6.50;2.85;;;;;;;22.23;56.36;103083.25;5071431;28;20043;-62
2021/08/24 09:49:49;;;;;;;8.35;2.70;;;;;;;23.78;50.67;103096.22;5064323;28;20033;-63
2021/08/24 09:52:23;;;;;;;7.35;2.67;;;;;;;24.79;48.69;103100.38;5052003;28;20025;-63
2021/08/24 09:54:48;;;;;;;5.53;3.00;;;;;;;24.36;48.49;103094.22;5055594;28;20044;-63
2021/08/24 09:57:24;;;;;;;7.33;2.63;;;;;;;24.57;49.45;103091.00;5052164;28;20369;-63
2021/08/24 10:00:20;;;;;;;5.25;2.72;;;;;;;24.56;48.59;103088.41;5053810;28;20051;-64
2021/08/24 10:02:52;;;;;;;8.95;2.90;;;;;;;23.37;49.38;103081.72;5066908;28;20059;-64
2021/08/24 10:05:20;;;;;;;8.88;2.50;;;;;;;23.97;49.61;103081.53;5059455;28;20028;-63
2021/08/24 10:07:48;;;;;;;6.75;2.80;;;;;;;25.06;45.17;103089.41;5055757;28;20029;-64
2021/08/24 10:10:26;;;;;;;6.47;2.83;;;;;;;24.56;46.67;103075.72;5072030;28;20131;-62
2021/08/24 10:12:52;;;;;;;6.95;2.47;;;;;;;25.24;44.70;103081.78;5069415;28;20095;-64
2021/08/24 10:15:23;;;;;;;4.38;2.50;;;;;;;25.83;44.19;103086.56;5071715;28;20032;-64
2021/08/24 10:17:58;;;;;;;3.47;2.13;;;;;;;26.62;41.74;103080.56;5070198;28;20111;-64
2021/08/24 10:20:32;;;;;;;6.20;2.35;;;;;;;26.27;42.26;103077.91;5069427;28;20295;-65
2021/08/24 10:22:58;;;;;;;4.40;2.28;;;;;;;25.50;43.20;103082.66;5064782;28;20034;-65
2021/08/24 10:25:49;;;;;;;5.32;2.17;;;;;;;25.83;42.17;103077.53;5051853;28;20029;-67
2021/08/24 10:28:48;;;;;;;5.55;2.35;;;;;;;25.81;42.43;103077.66;5058729;28;20077;-63
2021/08/24 10:31:26;;;;;;;6.20;2.20;;;;;;;25.77;43.58;103072.56;4982548;28;20129;-63
2021/08/24 10:33:56;;;;;;;7.63;2.55;;;;;;;26.90;41.34;103067.56;4974653;28;20039;-63
2021/08/24 10:36:43;;;;;;;7.47;2.97;;;;;;;26.91;39.99;103065.72;4971272;28;20042;-64
2021/08/24 10:39:29;;;;;;;6.95;3.30;;;;;;;27.30;39.97;103056.19;4970520;28;20074;-63
2021/08/24 10:42:06;;;;;;;6.80;2.45;;;;;;;27.03;40.35;103059.28;4971796;28;20081;-65
2021/08/24 10:44:45;;;;;;;4.45;2.40;;;;;;;26.84;39.52;103056.31;4983349;28;20034;-64
2021/08/24 10:47:28;;;;;;;5.30;2.40;;;;;;;27.01;38.96;103055.84;4954353;28;20447;-62
2021/08/24 10:49:56;;;;;;;4.82;2.22;;;;;;;26.44;39.51;103057.59;4972759;28;20038;-65
2021/08/24 10:52:59;;;;;;;4.45;2.20;;;;;;;26.40;39.12;103053.38;4971442;28;20030;-64
2021/08/24 10:55:37;;;;;;;5.03;2.40;;;;;;;27.15;38.31;103054.72;4971980;28;20046;-65
2021/08/24 10:58:35;;;;;;;6.53;2.35;;;;;;;27.72;36.52;103062.81;4971094;28;20034;-63
2021/08/24 11:01:05;;;;;;;9.02;2.75;;;;;;;27.13;37.34;103052.09;4986441;28;20113;-64
2021/08/24 11:03:40;;;;;;;5.03;2.13;;;;;;;27.99;35.31;103054.16;4982160;28;20044;-64
2021/08/24 11:06:17;;;;;;;5.60;2.30;;;;;;;27.89;37.08;103054.09;4993412;28;20097;-64
2021/08/24 11:09:10;;;;;;;4.38;2.30;;;;;;;27.11;38.79;103050.50;5053455;28;20039;-63
2021/08/24 11:11:44;;;;;;;6.47;2.47;;;;;;;27.71;38.74;103047.47;5061514;28;20099;-63
2021/08/24 11:14:15;;;;;;;5.75;2.25;;;;;;;28.14;37.05;103038.41;5032152;28;20421;-62
2021/08/24 11:17:00;;;;;;;5.47;2.40;;;;;;;27.75;37.41;103052.53;5057490;28;20480;-63
2021/08/24 11:19:25;;;;;;;4.50;2.40;;;;;;;27.20;37.83;103038.91;5073279;28;20063;-63
2021/08/24 11:22:19;;;;;;;4.43;2.45;;;;;;;27.18;38.39;103050.88;5054291;28;20037;-63
2021/08/24 11:24:59;;;;;;;5.50;2.25;;;;;;;27.81;35.88;103037.53;5054820;28;20079;-61
2021/08/24 11:27:33;;;;;;;7.97;2.60;;;;;;;28.23;36.28;103043.06;5054953;28;20029;-63
2021/08/24 11:30:28;;;;;;;6.43;2.40;;;;;;;27.88;36.66;103036.03;5054180;28;20045;-62
2021/08/24 11:33:02;;;;;;;4.15;2.72;;;;;;;27.26;36.94;103030.19;4962339;28;20047;-64
2021/08/24 11:35:59;;;;;;;4.78;2.40;;;;;;;27.29;37.61;103038.13;4954622;28;20035;-65